createdAt,value
2022-11-08T00:01:06.341Z,83.60
2022-11-08T00:03:32.613Z,33.30
2022-11-08T00:06:17.424Z,15.88
2022-11-08T00:09:02.146Z,14.23
2022-11-08T00:11:46.775Z,17.40
2022-11-08T00:14:13.024Z,14.43
2022-11-08T00:16:39.262Z,9.38
2022-11-08T00:19:05.532Z,13.90
2022-11-08T00:21:31.779Z,9.85
2022-11-08T00:23:58.020Z,10.30
2022-11-08T00:26:24.297Z,8.82
2022-11-08T00:28:50.524Z,5.65
2022-11-08T00:31:16.819Z,9.48
2022-11-08T00:33:43.072Z,6.38
2022-11-08T00:36:09.435Z,9.10
2022-11-08T00:38:35.669Z,10.18
2022-11-08T00:41:01.906Z,7.68
2022-11-08T00:43:28.139Z,11.45
2022-11-08T00:45:54.396Z,10.95
2022-11-08T00:48:20.954Z,9.80
2022-11-08T00:50:47.320Z,11.90
2022-11-08T00:53:13.551Z,10.10
2022-11-08T00:55:39.794Z,9.07
2022-11-08T00:58:06.037Z,10.50
2022-11-08T01:00:32.339Z,10.30
2022-11-08T01:03:17.345Z,10.77
2022-11-08T01:05:43.577Z,12.70
2022-11-08T01:08:10.502Z,6.63
2022-11-08T01:10:37.313Z,17.70
2022-11-08T01:13:03.635Z,10.10
2022-11-08T01:15:33.961Z,12.27
2022-11-08T01:18:00.278Z,6.95
2022-11-08T01:23:24.719Z,5.45
2022-11-08T01:25:50.997Z,4.35
2022-11-08T01:28:17.556Z,6.15
2022-11-08T01:30:44.321Z,6.43
2022-11-08T01:33:11.341Z,9.45
2022-11-08T01:35:37.599Z,6.25
2022-11-08T01:38:04.427Z,7.63
2022-11-08T01:40:31.184Z,5.55
2022-11-08T01:42:57.530Z,8.40
2022-11-08T01:45:42.560Z,7.50
2022-11-08T01:48:08.792Z,6.65
2022-11-08T01:50:35.092Z,6.93
2022-11-08T01:53:01.341Z,7.32
2022-11-08T01:55:30.369Z,9.20
2022-11-08T01:58:06.352Z,13.07
2022-11-08T02:00:33.056Z,10.23
2022-11-08T02:03:00.255Z,6.82
2022-11-08T02:05:27.062Z,12.18
2022-11-08T02:08:02.466Z,9.65
2022-11-08T02:10:34.594Z,8.27
2022-11-08T02:13:04.806Z,10.40
2022-11-08T02:15:31.717Z,10.32
2022-11-08T02:17:58.010Z,14.75
2022-11-08T02:20:24.265Z,10.48
2022-11-08T02:23:01.260Z,14.27
2022-11-08T02:25:27.742Z,17.33
2022-11-08T02:27:54.017Z,8.90
2022-11-08T02:30:20.255Z,11.65
2022-11-08T02:32:47.154Z,14.18
2022-11-08T02:35:15.219Z,8.63
2022-11-08T02:37:41.519Z,10.90
2022-11-08T02:40:08.242Z,11.57
2022-11-08T02:42:34.480Z,22.70
2022-11-08T02:45:00.712Z,17.33
2022-11-08T02:47:26.966Z,15.07
2022-11-08T02:49:53.219Z,12.27
2022-11-08T02:52:19.498Z,15.50
2022-11-08T02:54:46.189Z,11.07
2022-11-08T02:57:12.501Z,13.80
2022-11-08T02:59:38.863Z,9.35
2022-11-08T03:02:05.228Z,12.73
2022-11-08T03:04:31.640Z,11.13
2022-11-08T03:06:58.069Z,14.65
2022-11-08T03:09:24.371Z,10.80
2022-11-08T03:11:50.701Z,16.38
2022-11-08T03:14:16.989Z,14.45
2022-11-08T03:16:43.257Z,10.27
2022-11-08T03:19:11.704Z,10.73
2022-11-08T03:21:37.961Z,11.68
2022-11-08T03:24:04.917Z,15.73
2022-11-08T03:28:57.364Z,11.35
2022-11-08T03:31:23.629Z,11.13
2022-11-08T03:33:49.877Z,9.30
2022-11-08T03:36:16.153Z,24.05
2022-11-08T03:38:42.384Z,9.25
2022-11-08T03:41:08.635Z,11.52
2022-11-08T03:43:34.918Z,10.10
2022-11-08T03:46:01.179Z,9.45
2022-11-08T03:48:27.424Z,10.45
2022-11-08T03:50:53.686Z,14.65
2022-11-08T03:53:19.936Z,10.07
2022-11-08T03:55:46.280Z,14.40
2022-11-08T03:58:12.548Z,8.40
2022-11-08T04:00:38.807Z,9.85
2022-11-08T04:03:05.064Z,8.68
2022-11-08T04:05:32.323Z,13.68
2022-11-08T04:07:59.500Z,13.80
2022-11-08T04:10:25.741Z,11.20
2022-11-08T04:13:10.702Z,14.88
2022-11-08T04:15:37.035Z,15.50
2022-11-08T04:18:22.470Z,14.32
2022-11-08T04:21:07.807Z,13.93
2022-11-08T04:23:35.159Z,12.45
2022-11-08T04:26:02.261Z,10.95
2022-11-08T04:28:29.682Z,6.50
2022-11-08T04:31:00.004Z,4.53
2022-11-08T04:33:26.253Z,8.43
2022-11-08T04:35:52.996Z,12.20
2022-11-08T04:38:20.101Z,6.40
2022-11-08T04:40:46.659Z,5.13
2022-11-08T04:43:13.296Z,7.63
2022-11-08T04:45:39.577Z,6.00
2022-11-08T04:48:05.973Z,6.80
2022-11-08T04:50:32.211Z,7.97
2022-11-08T04:52:58.477Z,7.22
2022-11-08T04:55:24.739Z,6.53
2022-11-08T04:57:51.003Z,5.93
2022-11-08T05:00:18.046Z,10.05
2022-11-08T05:02:44.547Z,20.52
2022-11-08T05:05:10.834Z,23.15
2022-11-08T05:07:37.138Z,17.15
2022-11-08T05:10:03.519Z,21.02
2022-11-08T05:12:29.831Z,21.98
2022-11-08T05:14:56.073Z,14.82
2022-11-08T05:17:22.339Z,22.55
2022-11-08T05:20:07.083Z,15.90
2022-11-08T05:22:51.912Z,14.65
2022-11-08T05:25:18.139Z,12.75
2022-11-08T05:27:44.558Z,13.30
2022-11-08T05:30:10.948Z,12.90
2022-11-08T05:32:37.197Z,14.40
2022-11-08T05:35:03.628Z,11.15
2022-11-08T05:37:29.864Z,14.05
2022-11-08T05:39:56.097Z,14.65
2022-11-08T05:42:22.339Z,17.05
2022-11-08T05:44:48.576Z,16.85
2022-11-08T05:47:14.997Z,14.95
2022-11-08T05:49:41.218Z,22.50
2022-11-08T05:52:07.427Z,18.52
2022-11-08T05:54:33.660Z,10.57
2022-11-08T05:56:59.931Z,12.15
2022-11-08T05:59:26.284Z,18.05
2022-11-08T06:01:52.599Z,8.18
2022-11-08T06:04:19.065Z,12.32
2022-11-08T06:06:45.389Z,13.85
2022-11-08T06:09:11.659Z,13.77
2022-11-08T06:11:38.243Z,13.07
2022-11-08T06:14:04.518Z,14.98
2022-11-08T06:16:30.753Z,12.43
2022-11-08T06:18:57.000Z,10.82
2022-11-08T06:21:23.322Z,9.82
2022-11-08T06:23:51.616Z,11.70
2022-11-08T06:26:17.839Z,12.38
2022-11-08T06:28:44.276Z,9.00
2022-11-08T06:31:10.841Z,11.32
2022-11-08T06:33:37.070Z,12.80
2022-11-08T06:36:03.358Z,13.35
2022-11-08T06:38:29.699Z,19.08
2022-11-08T06:40:58.757Z,13.82
2022-11-08T06:43:25.285Z,17.42
2022-11-08T06:45:51.825Z,12.63
2022-11-08T06:48:18.094Z,9.63
2022-11-08T06:50:44.343Z,11.48
2022-11-08T06:53:11.792Z,10.07
2022-11-08T06:55:38.183Z,13.23
2022-11-08T06:58:04.544Z,18.50
2022-11-08T07:00:30.922Z,19.95
2022-11-08T07:02:58.909Z,11.50
2022-11-08T07:05:25.922Z,18.20
2022-11-08T07:10:19.348Z,9.07
2022-11-08T07:12:45.801Z,32.88
2022-11-08T07:15:12.175Z,20.33
2022-11-08T07:17:38.918Z,31.98
2022-11-08T07:20:05.628Z,44.00
2022-11-08T07:22:31.872Z,25.00
2022-11-08T07:24:58.112Z,33.42
2022-11-08T07:27:24.348Z,20.25
2022-11-08T07:29:50.715Z,25.35
2022-11-08T07:32:16.951Z,20.63
2022-11-08T07:34:43.256Z,31.60
2022-11-08T07:37:09.511Z,12.60
2022-11-08T07:39:35.832Z,13.00
2022-11-08T07:42:02.350Z,16.52
2022-11-08T07:44:28.579Z,9.10
2022-11-08T07:46:55.484Z,16.73
2022-11-08T07:49:21.753Z,12.63
2022-11-08T07:51:48.029Z,14.10
2022-11-08T07:54:14.424Z,16.73
2022-11-08T07:56:40.743Z,9.95
2022-11-08T07:59:07.053Z,13.13
2022-11-08T08:01:33.332Z,13.80
2022-11-08T08:03:59.672Z,11.00
2022-11-08T08:06:26.324Z,9.20
2022-11-08T08:08:52.604Z,12.93
2022-11-08T08:11:19.777Z,11.38
2022-11-08T08:13:46.023Z,7.28
2022-11-08T08:16:12.291Z,18.58
2022-11-08T08:18:38.520Z,11.70
2022-11-08T08:21:04.791Z,11.50
2022-11-08T08:23:31.023Z,17.52
2022-11-08T08:25:57.403Z,19.02
2022-11-08T08:28:23.625Z,14.43
2022-11-08T08:30:49.875Z,20.02
2022-11-08T08:33:32.181Z,11.82
2022-11-08T08:36:00.954Z,12.15
2022-11-08T08:38:27.477Z,14.75
2022-11-08T08:40:53.702Z,15.45
2022-11-08T08:43:20.717Z,56.15
2022-11-08T08:45:47.352Z,82.65
2022-11-08T08:48:13.574Z,18.88
2022-11-08T08:50:40.019Z,10.88
2022-11-08T08:53:06.450Z,15.88
2022-11-08T08:55:35.138Z,14.98
2022-11-08T08:58:01.383Z,9.48
2022-11-08T09:03:16.976Z,10.63
2022-11-08T09:05:46.257Z,8.57
2022-11-08T09:08:14.217Z,5.07
2022-11-08T09:10:41.069Z,8.30
2022-11-08T09:13:07.328Z,7.20
2022-11-08T09:15:33.819Z,8.98
2022-11-08T09:18:00.128Z,9.85
2022-11-08T09:20:26.739Z,7.20
2022-11-08T09:22:53.008Z,6.95
2022-11-08T09:25:19.413Z,10.95
2022-11-08T09:27:45.892Z,8.00
2022-11-08T09:30:12.174Z,8.98
2022-11-08T09:35:24.799Z,5.50
2022-11-08T09:37:54.279Z,6.88
2022-11-08T09:40:22.054Z,8.93
2022-11-08T09:42:55.087Z,10.93
2022-11-08T09:45:31.559Z,14.98
2022-11-08T09:47:59.139Z,31.98
2022-11-08T09:50:28.266Z,9.88
2022-11-08T09:52:54.462Z,8.77
2022-11-08T09:55:20.861Z,11.73
2022-11-08T09:57:52.947Z,10.60
2022-11-08T10:00:19.276Z,24.75
2022-11-08T10:02:45.504Z,10.52
2022-11-08T10:05:17.518Z,9.05
2022-11-08T10:08:00.536Z,10.07
2022-11-08T10:10:39.599Z,5.60
2022-11-08T10:13:27.478Z,12.88
2022-11-08T10:15:58.212Z,10.27
2022-11-08T10:18:34.304Z,11.40
2022-11-08T10:21:00.586Z,9.80
2022-11-08T10:23:47.155Z,7.28
2022-11-08T10:26:20.535Z,10.30
2022-11-08T10:28:56.374Z,9.13
2022-11-08T10:31:22.693Z,7.35
2022-11-08T10:33:52.901Z,10.05
2022-11-08T10:36:39.470Z,10.45
2022-11-08T10:39:05.741Z,9.32
2022-11-08T10:41:37.126Z,11.38
2022-11-08T10:44:10.868Z,11.25
2022-11-08T10:46:39.672Z,10.88
2022-11-08T10:49:15.005Z,11.40
2022-11-08T10:51:42.691Z,6.30
2022-11-08T10:54:28.876Z,4.82
2022-11-08T10:56:58.289Z,5.97
2022-11-08T10:59:31.266Z,8.82
2022-11-08T11:01:57.611Z,4.47
2022-11-08T11:04:26.128Z,4.82
2022-11-08T11:06:52.477Z,4.70
2022-11-08T11:09:20.077Z,4.68
2022-11-08T11:11:46.505Z,11.48
2022-11-08T11:14:18.141Z,4.57
2022-11-08T11:16:52.651Z,4.75
2022-11-08T11:19:18.938Z,5.68
2022-11-08T11:21:46.572Z,4.00
2022-11-08T11:24:19.356Z,4.15
2022-11-08T11:27:09.689Z,4.80
2022-11-08T11:29:36.855Z,5.50
2022-11-08T11:32:23.644Z,5.32
2022-11-08T11:35:10.119Z,3.40
2022-11-08T11:37:36.361Z,4.38
2022-11-08T11:40:12.361Z,5.05
2022-11-08T11:42:53.940Z,6.07
2022-11-08T11:45:37.801Z,5.03
2022-11-08T11:48:13.467Z,4.20
2022-11-08T11:50:40.856Z,2.35
2022-11-08T11:53:12.740Z,7.53
2022-11-08T11:55:42.139Z,3.83
2022-11-08T11:58:14.441Z,4.32
2022-11-08T12:00:45.696Z,3.13
2022-11-08T12:03:30.516Z,7.00
2022-11-08T12:06:17.561Z,5.20
2022-11-08T12:08:52.791Z,5.90
2022-11-08T12:11:34.311Z,3.95
2022-11-08T12:14:29.859Z,13.65
2022-11-08T12:17:08.081Z,5.70
2022-11-08T12:19:37.925Z,9.27
2022-11-08T12:22:04.166Z,5.22
2022-11-08T12:24:49.287Z,4.72
2022-11-08T12:27:31.485Z,6.25
2022-11-08T12:30:03.843Z,6.13
2022-11-08T12:32:36.191Z,6.38
2022-11-08T12:35:08.600Z,6.25
2022-11-08T12:37:53.340Z,5.47
2022-11-08T12:40:38.737Z,6.13
2022-11-08T12:43:25.243Z,8.57
2022-11-08T12:45:56.245Z,9.68
2022-11-08T12:48:34.765Z,9.07
2022-11-08T12:51:07.047Z,6.30
2022-11-08T12:53:34.196Z,7.45
2022-11-08T12:56:02.363Z,7.38
2022-11-08T12:58:34.287Z,9.27
2022-11-08T13:01:10.853Z,6.75
2022-11-08T13:03:37.192Z,6.80
2022-11-08T13:06:24.249Z,4.30
2022-11-08T13:08:56.755Z,4.35
2022-11-08T13:11:32.354Z,7.60
2022-11-08T13:14:00.351Z,5.35
2022-11-08T13:16:27.930Z,5.78
2022-11-08T13:18:54.139Z,13.52
2022-11-08T13:21:38.093Z,10.82
2022-11-08T13:24:14.057Z,9.32
2022-11-08T13:26:52.743Z,7.35
2022-11-08T13:29:20.931Z,6.90
2022-11-08T13:31:50.338Z,9.40
2022-11-08T13:34:24.209Z,8.35
2022-11-08T13:36:53.472Z,12.70
2022-11-08T13:39:35.015Z,5.25
2022-11-08T13:42:16.544Z,7.95
2022-11-08T13:44:54.991Z,6.68
2022-11-08T13:47:33.620Z,11.23
2022-11-08T13:50:18.957Z,10.43
2022-11-08T13:52:46.482Z,8.52
2022-11-08T13:55:51.762Z,5.05
2022-11-08T13:58:33.122Z,6.20
2022-11-08T14:00:59.890Z,11.40
2022-11-08T14:03:35.101Z,8.23
2022-11-08T14:06:07.525Z,5.38
2022-11-08T14:08:39.171Z,7.75
2022-11-08T14:11:16.233Z,6.38
2022-11-08T14:13:42.526Z,7.28
2022-11-08T14:16:15.150Z,4.43
2022-11-08T14:18:41.418Z,6.07
2022-11-08T14:21:08.126Z,11.75
2022-11-08T14:23:36.437Z,4.93
2022-11-08T14:26:07.021Z,5.65
2022-11-08T14:28:34.787Z,3.58
2022-11-08T14:31:01.785Z,5.28
2022-11-08T14:35:54.317Z,4.22
2022-11-08T14:38:20.655Z,8.35
2022-11-08T14:40:48.532Z,3.20
2022-11-08T14:43:14.932Z,5.22
2022-11-08T14:45:43.093Z,5.80
2022-11-08T14:48:12.379Z,7.50
2022-11-08T14:50:38.636Z,5.50
2022-11-08T14:53:31.596Z,8.60
2022-11-08T14:55:57.842Z,6.47
2022-11-08T14:58:26.896Z,4.68
2022-11-08T15:00:53.255Z,9.18
2022-11-08T15:03:19.901Z,3.92
2022-11-08T15:08:31.114Z,6.13
2022-11-08T15:11:02.168Z,4.72
2022-11-08T15:13:30.668Z,14.02
2022-11-08T15:16:00.136Z,7.40
2022-11-08T15:18:28.063Z,6.75
2022-11-08T15:20:55.525Z,4.70
2022-11-08T15:23:23.148Z,8.25
2022-11-08T15:25:56.788Z,7.28
2022-11-08T15:28:25.557Z,6.78
2022-11-08T15:30:57.206Z,6.53
2022-11-08T15:33:34.851Z,11.70
2022-11-08T15:36:01.591Z,3.60
2022-11-08T15:38:36.155Z,6.60
2022-11-08T15:41:04.595Z,5.30
2022-11-08T15:43:30.797Z,9.38
